createdAt,value
2018-12-12T00:00:59.662Z,3.10
2018-12-12T00:03:28.325Z,2.60
2018-12-12T00:05:57.038Z,3.00
2018-12-12T00:08:25.752Z,2.75
2018-12-12T00:10:54.414Z,2.20
2018-12-12T00:13:23.086Z,2.33
2018-12-12T00:15:51.776Z,2.58
2018-12-12T00:18:20.439Z,2.90
2018-12-12T00:20:49.153Z,3.30
2018-12-12T00:23:17.852Z,2.60
2018-12-12T00:25:46.564Z,3.25
2018-12-12T00:28:15.271Z,2.70
2018-12-12T00:30:43.938Z,3.08
2018-12-12T00:33:12.625Z,2.40
2018-12-12T00:35:41.329Z,3.40
2018-12-12T00:38:10.054Z,2.33
2018-12-12T00:40:38.753Z,2.72
2018-12-12T00:43:07.498Z,2.85
2018-12-12T00:45:36.220Z,3.20
2018-12-12T00:48:05.070Z,2.50
2018-12-12T00:50:34.013Z,3.77
2018-12-12T00:53:02.692Z,3.90
2018-12-12T00:55:31.377Z,3.12
2018-12-12T00:58:00.083Z,3.02
2018-12-12T01:00:28.768Z,3.00
2018-12-12T01:02:57.432Z,3.40
2018-12-12T01:05:26.176Z,3.45
2018-12-12T01:07:54.861Z,2.92
2018-12-12T01:10:23.529Z,3.40
2018-12-12T01:12:52.708Z,3.00
2018-12-12T01:15:21.368Z,3.20
2018-12-12T01:17:50.052Z,3.75
2018-12-12T01:20:18.838Z,3.25
2018-12-12T01:22:47.644Z,4.83
2018-12-12T01:25:16.310Z,3.50
2018-12-12T01:27:44.955Z,3.37
2018-12-12T01:30:13.669Z,3.42
2018-12-12T01:32:42.332Z,3.52
2018-12-12T01:35:11.203Z,3.77
2018-12-12T01:37:39.905Z,3.22
2018-12-12T01:40:08.582Z,3.45
2018-12-12T01:42:37.273Z,3.50
2018-12-12T01:45:05.969Z,4.25
2018-12-12T01:47:34.661Z,3.52
2018-12-12T01:50:03.720Z,2.67
2018-12-12T01:52:32.378Z,3.33
2018-12-12T01:55:01.088Z,3.22
2018-12-12T01:57:29.767Z,3.50
2018-12-12T01:59:58.427Z,3.80
2018-12-12T02:02:27.084Z,3.83
2018-12-12T02:04:55.820Z,3.90
2018-12-12T02:07:24.767Z,3.50
2018-12-12T02:09:53.747Z,3.20
2018-12-12T02:12:22.432Z,3.87
2018-12-12T02:14:51.144Z,3.47
2018-12-12T02:17:19.811Z,3.65
2018-12-12T02:19:48.510Z,3.80
2018-12-12T02:22:17.220Z,3.40
2018-12-12T02:24:45.872Z,3.67
2018-12-12T02:27:14.531Z,3.65
2018-12-12T02:29:43.227Z,3.65
2018-12-12T02:32:11.958Z,3.83
2018-12-12T02:34:40.646Z,3.75
2018-12-12T02:37:09.351Z,3.22
2018-12-12T02:39:38.081Z,3.87
2018-12-12T02:42:06.763Z,3.50
2018-12-12T02:44:35.691Z,3.40
2018-12-12T02:47:04.401Z,3.55
2018-12-12T02:49:33.113Z,4.37
2018-12-12T02:52:01.850Z,4.55
2018-12-12T02:54:30.531Z,3.98
2018-12-12T02:56:59.229Z,3.72
2018-12-12T02:59:27.903Z,3.60
2018-12-12T03:01:56.601Z,3.77
2018-12-12T03:04:25.301Z,3.35
2018-12-12T03:06:55.588Z,3.55
2018-12-12T03:09:24.289Z,3.85
2018-12-12T03:11:52.940Z,3.55
2018-12-12T03:14:21.628Z,4.65
2018-12-12T03:16:50.321Z,4.28
2018-12-12T03:19:19.002Z,4.80
2018-12-12T03:21:47.969Z,4.42
2018-12-12T03:24:16.914Z,4.42
2018-12-12T03:26:45.572Z,4.37
2018-12-12T03:29:14.241Z,4.87
2018-12-12T03:31:42.918Z,4.70
2018-12-12T03:34:11.609Z,4.65
2018-12-12T03:36:40.304Z,4.10
2018-12-12T03:39:08.993Z,4.37
2018-12-12T03:41:37.817Z,4.60
2018-12-12T03:44:06.507Z,4.70
2018-12-12T03:46:35.203Z,5.22
2018-12-12T03:49:03.910Z,4.80
2018-12-12T03:51:32.606Z,4.70
2018-12-12T03:54:01.390Z,5.20
2018-12-12T03:56:30.140Z,3.90
2018-12-12T03:58:58.812Z,5.03
2018-12-12T04:01:27.475Z,5.20
2018-12-12T04:03:56.177Z,4.75
2018-12-12T04:06:24.875Z,5.67
2018-12-12T04:08:53.580Z,4.37
2018-12-12T04:11:22.266Z,4.55
2018-12-12T04:13:51.195Z,4.83
2018-12-12T04:16:20.190Z,5.35
2018-12-12T04:18:49.084Z,5.72
2018-12-12T04:21:17.747Z,5.50
2018-12-12T04:23:46.457Z,5.67
2018-12-12T04:26:15.662Z,5.70
2018-12-12T04:28:44.340Z,5.55
2018-12-12T04:31:13.028Z,5.90
2018-12-12T04:33:41.781Z,6.40
2018-12-12T04:36:10.481Z,6.03
2018-12-12T04:38:39.260Z,5.85
2018-12-12T04:41:08.185Z,7.55
2018-12-12T04:43:36.980Z,7.05
2018-12-12T04:46:05.655Z,6.80
2018-12-12T04:48:34.362Z,6.40
2018-12-12T04:51:03.029Z,7.75
2018-12-12T04:53:31.903Z,8.78
2018-12-12T04:56:00.597Z,8.15
2018-12-12T04:58:29.261Z,9.00
2018-12-12T05:00:57.998Z,9.40
2018-12-12T05:03:26.728Z,9.23
2018-12-12T05:05:56.923Z,12.75
2018-12-12T05:08:25.644Z,11.43
2018-12-12T05:10:55.793Z,12.40
2018-12-12T05:13:24.585Z,11.75
2018-12-12T05:15:53.288Z,12.45
2018-12-12T05:18:21.992Z,12.30
2018-12-12T05:20:50.703Z,12.80
2018-12-12T05:23:19.496Z,14.50
2018-12-12T05:25:48.160Z,14.65
2018-12-12T05:28:16.859Z,12.90
2018-12-12T05:30:45.527Z,13.10
2018-12-12T05:33:14.224Z,15.32
2018-12-12T05:35:42.939Z,14.93
2018-12-12T05:38:11.614Z,14.50
2018-12-12T05:40:40.547Z,16.32
2018-12-12T05:43:09.208Z,14.73
2018-12-12T05:45:38.104Z,14.00
2018-12-12T05:48:06.796Z,14.25
2018-12-12T05:50:35.447Z,13.68
2018-12-12T05:53:04.148Z,16.07
2018-12-12T05:55:32.827Z,15.55
2018-12-12T05:58:01.535Z,16.12
2018-12-12T06:00:30.256Z,15.83
2018-12-12T06:02:58.932Z,15.93
2018-12-12T06:05:27.700Z,16.55
2018-12-12T06:07:56.374Z,15.98
2018-12-12T06:10:25.079Z,16.30
2018-12-12T06:12:53.741Z,16.67
2018-12-12T06:15:22.436Z,15.65
2018-12-12T06:17:51.154Z,17.32
2018-12-12T06:20:19.863Z,14.43
2018-12-12T06:22:48.613Z,16.87
2018-12-12T06:25:17.603Z,21.23
2018-12-12T06:27:46.259Z,14.47
2018-12-12T06:30:14.932Z,14.60
2018-12-12T06:32:43.604Z,13.58
2018-12-12T06:35:12.314Z,14.13
2018-12-12T06:37:40.998Z,13.78
2018-12-12T06:40:09.722Z,14.07
2018-12-12T06:42:38.387Z,14.87
2018-12-12T06:45:07.959Z,13.83
2018-12-12T06:47:36.668Z,14.15
2018-12-12T06:50:06.643Z,14.95
2018-12-12T06:52:35.347Z,13.85
2018-12-12T06:55:04.263Z,15.85
2018-12-12T06:57:32.938Z,14.85
2018-12-12T07:00:01.623Z,13.72
2018-12-12T07:02:30.300Z,15.45
2018-12-12T07:04:58.997Z,15.55
2018-12-12T07:07:27.816Z,13.98
2018-12-12T07:09:56.469Z,15.35
2018-12-12T07:12:25.173Z,16.73
2018-12-12T07:14:53.835Z,16.00
2018-12-12T07:17:22.525Z,15.85
2018-12-12T07:19:51.213Z,15.10
2018-12-12T07:22:19.911Z,17.77
2018-12-12T07:24:48.629Z,13.10
2018-12-12T07:27:17.325Z,13.30
2018-12-12T07:29:46.033Z,13.98
2018-12-12T07:32:14.741Z,12.13
2018-12-12T07:34:43.456Z,12.00
2018-12-12T07:37:12.371Z,11.03
2018-12-12T07:39:41.069Z,11.85
2018-12-12T07:42:09.760Z,9.85
2018-12-12T07:44:38.475Z,11.40
2018-12-12T07:47:07.192Z,11.50
2018-12-12T07:49:35.901Z,11.12
2018-12-12T07:52:04.572Z,9.63
2018-12-12T07:54:33.454Z,13.10
2018-12-12T07:57:02.152Z,10.95
2018-12-12T07:59:30.872Z,9.25
2018-12-12T08:01:59.566Z,11.40
2018-12-12T08:04:28.297Z,9.68
2018-12-12T08:06:56.982Z,10.50
2018-12-12T08:09:25.704Z,10.88
2018-12-12T08:11:54.418Z,10.40
2018-12-12T08:14:23.122Z,10.32
2018-12-12T08:16:51.873Z,10.35
2018-12-12T08:19:20.585Z,9.88
2018-12-12T08:21:49.317Z,11.15
2018-12-12T08:24:17.988Z,13.90
2018-12-12T08:26:46.646Z,18.57
2018-12-12T08:29:15.324Z,17.25
2018-12-12T08:31:43.984Z,26.40
2018-12-12T08:34:12.671Z,15.45
2018-12-12T08:36:41.470Z,11.00
2018-12-12T08:39:10.177Z,9.08
2018-12-12T08:41:38.888Z,10.48
2018-12-12T08:44:07.585Z,9.25
2018-12-12T08:46:36.258Z,9.18
2018-12-12T08:49:04.941Z,9.60
2018-12-12T08:51:33.647Z,10.50
2018-12-12T08:54:02.409Z,11.88
2018-12-12T08:56:31.320Z,11.45
2018-12-12T08:59:00.032Z,10.40
2018-12-12T09:01:28.923Z,10.10
2018-12-12T09:03:57.617Z,8.70
2018-12-12T09:06:26.276Z,9.75
2018-12-12T09:08:54.980Z,9.48
2018-12-12T09:11:23.672Z,9.78
2018-12-12T09:13:52.364Z,9.60
2018-12-12T09:16:21.063Z,9.90
2018-12-12T09:18:49.765Z,10.45
2018-12-12T09:21:18.537Z,8.95
2018-12-12T09:23:47.219Z,10.20
2018-12-12T09:26:16.646Z,9.65
2018-12-12T09:28:45.332Z,9.18
2018-12-12T09:31:14.056Z,9.08
2018-12-12T09:33:42.852Z,8.48
2018-12-12T09:36:11.559Z,8.98
2018-12-12T09:38:40.248Z,8.08
2018-12-12T09:41:08.943Z,8.80
2018-12-12T09:43:37.712Z,7.97
2018-12-12T09:46:06.408Z,9.03
2018-12-12T09:48:35.055Z,8.40
2018-12-12T09:51:07.229Z,9.60
2018-12-12T09:53:34.483Z,8.75
2018-12-12T09:56:03.177Z,7.87
2018-12-12T09:58:31.858Z,8.18
2018-12-12T10:01:00.540Z,7.92
2018-12-12T10:03:31.235Z,7.05
2018-12-12T10:05:59.925Z,8.03
2018-12-12T10:08:28.614Z,7.78
2018-12-12T10:10:57.318Z,7.25
2018-12-12T10:13:26.005Z,7.47
2018-12-12T10:15:54.759Z,6.92
2018-12-12T10:18:23.409Z,6.53
2018-12-12T10:20:52.091Z,7.62
2018-12-12T10:23:20.781Z,7.15
2018-12-12T10:25:49.517Z,6.40
2018-12-12T10:28:18.229Z,6.53
2018-12-12T10:30:46.943Z,7.00
2018-12-12T10:33:15.638Z,6.25
2018-12-12T10:35:44.329Z,6.62
2018-12-12T10:38:12.995Z,6.20
2018-12-12T10:40:41.648Z,7.08
2018-12-12T10:43:10.411Z,6.55
2018-12-12T10:45:39.303Z,5.85
2018-12-12T10:48:08.294Z,6.92
2018-12-12T10:50:37.437Z,6.47
2018-12-12T10:53:06.095Z,6.30
2018-12-12T10:55:34.768Z,7.15
2018-12-12T10:58:03.450Z,6.65
2018-12-12T11:00:33.796Z,5.90
2018-12-12T11:03:07.943Z,6.62
2018-12-12T11:05:36.612Z,8.15
2018-12-12T11:08:05.396Z,7.17
2018-12-12T11:10:34.118Z,14.68
2018-12-12T11:13:02.814Z,10.65
2018-12-12T11:15:31.564Z,9.25
2018-12-12T11:18:00.298Z,7.67
2018-12-12T11:20:28.977Z,7.83
2018-12-12T11:22:57.674Z,10.80
2018-12-12T11:25:26.499Z,11.08
2018-12-12T11:27:55.208Z,14.75
2018-12-12T11:30:23.939Z,15.95
2018-12-12T11:32:52.596Z,13.90
2018-12-12T11:35:21.282Z,12.98
2018-12-12T11:37:49.949Z,13.35
2018-12-12T11:40:18.618Z,13.28
2018-12-12T11:42:47.291Z,14.00
2018-12-12T11:45:16.032Z,15.00
2018-12-12T11:47:44.979Z,13.65
2018-12-12T11:50:13.661Z,12.10
2018-12-12T11:52:42.383Z,10.63
2018-12-12T11:55:11.062Z,9.98
2018-12-12T11:57:40.176Z,9.80
2018-12-12T12:00:10.079Z,12.05
2018-12-12T12:02:38.818Z,11.00
2018-12-12T12:05:07.504Z,10.20
2018-12-12T12:07:36.208Z,13.13
2018-12-12T12:10:06.944Z,11.12
2018-12-12T12:12:35.731Z,12.65
2018-12-12T12:15:05.914Z,15.03
2018-12-12T12:17:34.615Z,13.30
2018-12-12T12:20:03.416Z,13.35
2018-12-12T12:22:32.382Z,14.18
2018-12-12T12:25:01.071Z,14.93
2018-12-12T12:27:29.784Z,15.85
2018-12-12T12:29:58.490Z,12.82
2018-12-12T12:32:27.213Z,11.18
2018-12-12T12:34:55.941Z,13.62
2018-12-12T12:37:24.657Z,14.85
2018-12-12T12:39:53.516Z,14.45
2018-12-12T12:42:22.390Z,14.03
2018-12-12T12:44:51.469Z,14.38
2018-12-12T12:47:20.135Z,15.10
2018-12-12T12:49:48.804Z,15.10
2018-12-12T12:52:17.491Z,13.90
2018-12-12T12:54:46.218Z,14.85
2018-12-12T12:57:14.883Z,17.70
2018-12-12T12:59:43.593Z,15.55
2018-12-12T13:02:12.303Z,15.65
2018-12-12T13:04:40.969Z,13.18
2018-12-12T13:07:09.668Z,13.10
2018-12-12T13:09:38.935Z,13.75
2018-12-12T13:12:08.007Z,13.80
2018-12-12T13:14:37.686Z,12.60
2018-12-12T13:17:06.389Z,14.70
2018-12-12T13:19:35.059Z,14.65
2018-12-12T13:22:03.714Z,13.62
2018-12-12T13:24:32.380Z,16.23
2018-12-12T13:27:01.090Z,15.85
2018-12-12T13:29:29.804Z,16.17
2018-12-12T13:31:58.472Z,14.33
2018-12-12T13:34:27.171Z,12.15
2018-12-12T13:36:55.866Z,11.83
2018-12-12T13:39:24.549Z,12.10
2018-12-12T13:41:53.220Z,12.63
2018-12-12T13:44:22.071Z,12.28
2018-12-12T13:46:50.756Z,11.63
2018-12-12T13:49:19.458Z,11.22
2018-12-12T13:51:48.151Z,11.50
2018-12-12T13:54:16.859Z,12.75
2018-12-12T13:56:45.585Z,11.22
2018-12-12T13:59:14.283Z,10.68
2018-12-12T14:01:43.075Z,10.43
2018-12-12T14:04:11.788Z,11.25
2018-12-12T14:06:40.480Z,12.03
2018-12-12T14:09:09.239Z,10.30
2018-12-12T14:11:37.971Z,9.80
2018-12-12T14:14:06.666Z,10.40
2018-12-12T14:16:35.383Z,11.30
2018-12-12T14:19:04.088Z,10.50
2018-12-12T14:21:33.022Z,10.72
2018-12-12T14:24:01.795Z,11.70
2018-12-12T14:26:30.549Z,9.95
2018-12-12T14:28:59.257Z,12.00
2018-12-12T14:31:27.977Z,10.80
2018-12-12T14:33:56.725Z,11.12
2018-12-12T14:36:25.437Z,9.65
2018-12-12T14:38:54.211Z,10.95
2018-12-12T14:41:23.034Z,11.10
2018-12-12T14:43:51.747Z,12.25
2018-12-12T14:46:20.499Z,11.48
2018-12-12T14:48:49.211Z,11.33
2018-12-12T14:51:17.960Z,10.82
2018-12-12T14:53:46.710Z,11.00
2018-12-12T14:56:15.395Z,11.25
2018-12-12T14:58:44.170Z,11.15
2018-12-12T15:01:13.176Z,10.95
2018-12-12T15:03:41.925Z,10.63
2018-12-12T15:06:10.656Z,10.88
2018-12-12T15:08:39.390Z,11.90
2018-12-12T15:11:08.265Z,11.10
2018-12-12T15:13:36.995Z,10.63
2018-12-12T15:16:05.727Z,11.40
2018-12-12T15:18:34.418Z,11.80
2018-12-12T15:21:03.157Z,10.88
2018-12-12T15:23:31.828Z,10.70
2018-12-12T15:26:00.585Z,10.63
2018-12-12T15:28:29.343Z,10.28
2018-12-12T15:30:58.096Z,10.18
2018-12-12T15:33:26.898Z,10.68
2018-12-12T15:35:55.641Z,10.20
2018-12-12T15:38:24.328Z,10.70
2018-12-12T15:40:53.112Z,11.40
2018-12-12T15:43:21.871Z,9.75
2018-12-12T15:45:50.611Z,9.55
2018-12-12T15:48:19.341Z,10.05
2018-12-12T15:50:48.065Z,10.95
2018-12-12T15:53:17.571Z,10.28
2018-12-12T15:55:46.274Z,12.28
2018-12-12T15:58:14.990Z,12.88
2018-12-12T16:00:44.145Z,12.70
2018-12-12T16:03:13.155Z,11.75
2018-12-12T16:05:41.820Z,13.20
2018-12-12T16:08:10.525Z,13.28
2018-12-12T16:10:39.226Z,12.70
2018-12-12T16:13:07.942Z,12.23
2018-12-12T16:15:36.652Z,12.13
2018-12-12T16:18:05.660Z,14.23
2018-12-12T16:20:34.394Z,13.22
2018-12-12T16:23:03.766Z,12.82
2018-12-12T16:25:32.930Z,13.45
2018-12-12T16:28:01.654Z,13.45
2018-12-12T16:30:30.355Z,12.23
2018-12-12T16:33:00.198Z,12.88
2018-12-12T16:35:29.194Z,11.70
2018-12-12T16:37:57.895Z,11.65
2018-12-12T16:40:26.613Z,11.45
2018-12-12T16:42:55.371Z,13.55
2018-12-12T16:45:24.102Z,13.30
2018-12-12T16:47:52.862Z,13.62
2018-12-12T16:50:21.572Z,13.90
2018-12-12T16:52:50.272Z,14.13
2018-12-12T16:55:19.015Z,17.12
2018-12-12T16:57:47.754Z,29.90
2018-12-12T17:00:16.533Z,19.12
2018-12-12T17:02:45.278Z,14.75
2018-12-12T17:05:14.016Z,14.28
2018-12-12T17:07:42.827Z,11.85
2018-12-12T17:10:11.551Z,10.05
2018-12-12T17:12:40.352Z,12.70
2018-12-12T17:15:09.238Z,13.35
2018-12-12T17:17:37.929Z,13.43
2018-12-12T17:20:07.846Z,14.30
2018-12-12T17:22:36.736Z,11.53
2018-12-12T17:25:05.437Z,10.78
2018-12-12T17:27:34.111Z,10.95
2018-12-12T17:30:02.787Z,11.40
2018-12-12T17:32:31.485Z,11.12
2018-12-12T17:35:01.463Z,11.15
2018-12-12T17:37:30.173Z,10.28
2018-12-12T17:39:58.899Z,10.88
2018-12-12T17:42:27.584Z,11.75
2018-12-12T17:44:56.321Z,11.10
2018-12-12T17:47:25.008Z,10.38
2018-12-12T17:49:53.754Z,10.43
2018-12-12T17:52:22.607Z,10.35
2018-12-12T17:54:51.384Z,10.48
2018-12-12T17:57:20.119Z,9.95
2018-12-12T17:59:48.816Z,8.95
2018-12-12T18:02:17.530Z,9.08
2018-12-12T18:04:46.221Z,9.40
2018-12-12T18:07:14.929Z,10.13
2018-12-12T18:09:43.646Z,10.45
2018-12-12T18:12:12.379Z,9.88
2018-12-12T18:14:41.040Z,9.55
2018-12-12T18:17:09.772Z,9.50
2018-12-12T18:19:38.470Z,8.98
2018-12-12T18:22:07.160Z,9.15
2018-12-12T18:24:35.870Z,9.28
2018-12-12T18:27:04.565Z,9.80
2018-12-12T18:29:33.412Z,9.38
2018-12-12T18:32:02.166Z,10.10
2018-12-12T18:34:30.892Z,9.33
2018-12-12T18:36:59.568Z,9.50
2018-12-12T18:39:28.470Z,10.40
2018-12-12T18:41:57.197Z,10.32
2018-12-12T18:44:25.921Z,10.15
2018-12-12T18:46:54.644Z,10.63
2018-12-12T18:49:23.689Z,9.88
2018-12-12T18:51:52.433Z,13.18
2018-12-12T18:54:21.152Z,10.48
2018-12-12T18:56:50.009Z,10.35
2018-12-12T18:59:18.816Z,10.50
2018-12-12T19:01:47.547Z,10.38
2018-12-12T19:04:16.252Z,14.28
2018-12-12T19:06:45.025Z,11.35
2018-12-12T19:09:13.810Z,10.38
2018-12-12T19:11:44.548Z,10.58
2018-12-12T19:14:13.401Z,11.60
2018-12-12T19:16:42.108Z,10.72
2018-12-12T19:19:10.772Z,11.25
2018-12-12T19:21:39.455Z,12.28
2018-12-12T19:24:08.173Z,10.70
2018-12-12T19:26:37.217Z,11.93
2018-12-12T19:29:05.932Z,11.25
2018-12-12T19:31:34.615Z,12.10
2018-12-12T19:34:03.324Z,11.90
2018-12-12T19:36:32.141Z,10.03
2018-12-12T19:39:00.853Z,11.43
2018-12-12T19:41:29.612Z,39.75
2018-12-12T19:43:58.425Z,13.45
2018-12-12T19:46:27.185Z,11.45
2018-12-12T19:48:55.999Z,11.10
2018-12-12T19:51:24.708Z,11.05
2018-12-12T19:53:53.421Z,10.75
2018-12-12T19:56:22.142Z,12.82
2018-12-12T19:58:50.922Z,11.35
2018-12-12T20:01:20.185Z,12.03
2018-12-12T20:03:48.954Z,11.75
2018-12-12T20:06:17.673Z,12.10
2018-12-12T20:08:46.421Z,10.93
2018-12-12T20:11:15.180Z,12.40
2018-12-12T20:13:43.870Z,11.25
2018-12-12T20:16:12.594Z,11.25
2018-12-12T20:18:41.310Z,10.93
2018-12-12T20:21:10.036Z,11.43
2018-12-12T20:23:38.920Z,11.53
2018-12-12T20:26:07.605Z,10.98
2018-12-12T20:28:36.350Z,12.75
2018-12-12T20:31:05.125Z,11.43
2018-12-12T20:33:33.969Z,12.93
2018-12-12T20:36:02.733Z,11.38
2018-12-12T20:38:31.682Z,13.25
2018-12-12T20:41:00.372Z,13.03
2018-12-12T20:43:30.667Z,13.60
2018-12-12T20:46:00.239Z,12.00
2018-12-12T20:48:28.916Z,12.05
2018-12-12T20:50:57.655Z,13.25
2018-12-12T20:53:26.720Z,12.20
2018-12-12T20:55:55.441Z,12.33
2018-12-12T20:58:24.258Z,11.30
2018-12-12T21:00:52.928Z,12.13
2018-12-12T21:03:21.648Z,13.08
2018-12-12T21:05:54.470Z,13.43
2018-12-12T21:08:21.690Z,13.05
2018-12-12T21:10:50.433Z,12.13
2018-12-12T21:13:19.209Z,12.15
2018-12-12T21:15:48.093Z,12.70
2018-12-12T21:18:16.800Z,13.05
2018-12-12T21:20:45.603Z,11.83
2018-12-12T21:23:14.373Z,12.95
2018-12-12T21:25:43.585Z,12.55
2018-12-12T21:28:15.747Z,14.05
2018-12-12T21:30:44.493Z,12.70
2018-12-12T21:33:13.170Z,14.55
2018-12-12T21:35:42.516Z,15.25
2018-12-12T21:38:11.189Z,13.70
2018-12-12T21:40:39.904Z,15.58
2018-12-12T21:43:08.646Z,16.05
2018-12-12T21:45:37.866Z,17.48
2018-12-12T21:48:06.767Z,15.58
2018-12-12T21:50:35.498Z,18.20
2018-12-12T21:53:04.242Z,17.42
2018-12-12T21:55:32.983Z,17.12
2018-12-12T21:58:01.727Z,17.23
2018-12-12T22:00:30.504Z,15.63
2018-12-12T22:02:59.413Z,15.43
2018-12-12T22:05:28.178Z,16.65
2018-12-12T22:07:56.992Z,16.80
2018-12-12T22:10:25.958Z,19.77
2018-12-12T22:12:54.647Z,21.02
2018-12-12T22:15:23.395Z,25.05
2018-12-12T22:17:52.075Z,22.98
2018-12-12T22:20:20.837Z,21.10
2018-12-12T22:22:49.564Z,22.42
2018-12-12T22:25:18.414Z,22.65
2018-12-12T22:27:47.287Z,21.25
2018-12-12T22:30:16.021Z,18.80
2018-12-12T22:32:44.773Z,18.42
2018-12-12T22:35:13.472Z,17.10
2018-12-12T22:37:42.313Z,16.20
2018-12-12T22:40:11.065Z,18.45
2018-12-12T22:42:40.014Z,20.17
2018-12-12T22:45:09.082Z,19.35
2018-12-12T22:47:37.817Z,21.93
2018-12-12T22:50:06.637Z,24.55
2018-12-12T22:52:35.406Z,24.37
2018-12-12T22:55:04.548Z,21.52
2018-12-12T22:57:33.260Z,19.45
2018-12-12T23:00:01.961Z,22.98
2018-12-12T23:02:30.933Z,20.40
2018-12-12T23:04:59.636Z,20.02
2018-12-12T23:07:28.364Z,18.27
2018-12-12T23:09:57.044Z,20.68
2018-12-12T23:12:25.832Z,20.32
2018-12-12T23:14:54.561Z,22.07
2018-12-12T23:17:23.243Z,22.37
2018-12-12T23:19:52.020Z,26.12
2018-12-12T23:22:20.741Z,28.23
2018-12-12T23:24:49.449Z,27.40
2018-12-12T23:27:18.155Z,36.77
2018-12-12T23:29:46.879Z,32.17
2018-12-12T23:32:15.609Z,28.77
2018-12-12T23:34:44.364Z,28.20
2018-12-12T23:37:13.272Z,27.25
2018-12-12T23:39:41.953Z,27.48
2018-12-12T23:42:10.728Z,22.82
2018-12-12T23:44:39.574Z,22.85
2018-12-12T23:47:08.471Z,24.30
2018-12-12T23:49:37.302Z,22.10
2018-12-12T23:52:06.013Z,21.20
2018-12-12T23:54:34.753Z,19.50
2018-12-12T23:57:03.488Z,20.80
2018-12-12T23:59:32.200Z,19.10
